createdAt,value
2022-08-28T00:00:55.301Z,18.97
2022-08-28T00:02:54.177Z,18.88
2022-08-28T00:04:52.589Z,18.87
2022-08-28T00:06:50.998Z,18.85
2022-08-28T00:08:49.491Z,18.83
2022-08-28T00:10:48.478Z,18.80
2022-08-28T00:12:49.541Z,18.82
2022-08-28T00:14:47.775Z,18.79
2022-08-28T00:16:46.126Z,18.69
2022-08-28T00:18:44.584Z,18.67
2022-08-28T00:20:46.513Z,18.78
2022-08-28T00:22:44.927Z,18.81
2022-08-28T00:24:44.743Z,18.90
2022-08-28T00:27:00.811Z,18.82
2022-08-28T00:29:00.508Z,18.76
2022-08-28T00:31:00.160Z,18.75
2022-08-28T00:33:01.266Z,18.75
2022-08-28T00:35:01.722Z,18.73
2022-08-28T00:37:00.263Z,18.76
2022-08-28T00:39:00.231Z,18.87
2022-08-28T00:41:03.957Z,18.90
2022-08-28T00:43:05.308Z,18.83
2022-08-28T00:45:06.010Z,18.81
2022-08-28T00:47:05.208Z,18.67
2022-08-28T00:49:03.427Z,18.69
2022-08-28T00:51:20.944Z,18.64
2022-08-28T00:53:20.987Z,18.56
2022-08-28T00:55:26.470Z,18.57
2022-08-28T00:57:28.574Z,18.54
2022-08-28T00:59:27.883Z,18.49
2022-08-28T01:01:27.602Z,18.40
2022-08-28T01:03:26.502Z,18.33
2022-08-28T01:05:25.147Z,18.29
2022-08-28T01:07:24.030Z,18.25
2022-08-28T01:09:23.100Z,18.20
2022-08-28T01:11:22.285Z,18.18
2022-08-28T01:13:21.634Z,18.22
2022-08-28T01:15:25.495Z,18.27
2022-08-28T01:17:27.011Z,18.28
2022-08-28T01:19:31.315Z,18.20
2022-08-28T01:21:34.090Z,18.17
2022-08-28T01:23:47.244Z,18.09
2022-08-28T01:25:45.889Z,18.04
2022-08-28T01:27:44.428Z,18.01
2022-08-28T01:29:42.721Z,18.02
2022-08-28T01:31:47.020Z,18.03
2022-08-28T01:33:46.795Z,18.01
2022-08-28T01:35:48.802Z,17.99
2022-08-28T01:37:47.870Z,17.98
2022-08-28T01:39:47.609Z,17.99
2022-08-28T01:41:49.017Z,18.05
2022-08-28T01:43:47.367Z,17.95
2022-08-28T01:45:48.625Z,17.92
2022-08-28T01:47:47.485Z,17.90
2022-08-28T01:49:45.844Z,17.87
2022-08-28T01:51:44.931Z,17.88
2022-08-28T01:53:45.105Z,17.84
2022-08-28T01:55:47.007Z,17.83
2022-08-28T01:57:46.655Z,17.81
2022-08-28T01:59:44.871Z,17.78
2022-08-28T02:01:43.910Z,17.77
2022-08-28T02:03:43.351Z,17.72
2022-08-28T02:05:43.135Z,17.71
2022-08-28T02:07:41.762Z,17.69
2022-08-28T02:09:40.100Z,17.71
2022-08-28T02:11:46.432Z,17.69
2022-08-28T02:13:45.254Z,17.66
2022-08-28T02:15:44.121Z,17.66
2022-08-28T02:17:42.358Z,17.68
2022-08-28T02:19:40.699Z,17.71
2022-08-28T02:21:39.220Z,17.74
2022-08-28T02:23:39.520Z,17.69
2022-08-28T02:25:38.173Z,17.65
2022-08-28T02:27:38.079Z,17.58
2022-08-28T02:29:36.331Z,17.57
2022-08-28T02:31:34.585Z,17.58
2022-08-28T02:33:33.749Z,17.54
2022-08-28T02:35:32.337Z,17.51
2022-08-28T02:37:30.692Z,17.48
2022-08-28T02:39:30.790Z,17.51
2022-08-28T02:41:29.129Z,17.50
2022-08-28T02:43:29.036Z,17.47
2022-08-28T02:45:27.484Z,17.55
2022-08-28T02:47:26.113Z,17.48
2022-08-28T02:49:24.892Z,17.49
2022-08-28T02:51:27.409Z,17.50
2022-08-28T02:53:25.751Z,17.51
2022-08-28T02:55:24.744Z,17.41
2022-08-28T02:57:23.049Z,17.36
2022-08-28T02:59:23.035Z,17.33
2022-08-28T03:01:21.415Z,17.22
2022-08-28T03:03:20.431Z,17.17
2022-08-28T03:05:22.278Z,17.23
2022-08-28T03:07:22.799Z,17.17
2022-08-28T03:09:21.059Z,17.17
2022-08-28T03:11:19.686Z,17.11
2022-08-28T03:13:22.937Z,17.07
2022-08-28T03:15:26.720Z,17.11
2022-08-28T03:17:25.029Z,17.10
2022-08-28T03:19:24.608Z,17.04
2022-08-28T03:21:24.479Z,17.00
2022-08-28T03:23:28.374Z,16.99
2022-08-28T03:25:27.971Z,16.91
2022-08-28T03:27:26.296Z,16.94
2022-08-28T03:29:24.586Z,17.00
2022-08-28T03:31:26.487Z,16.97
2022-08-28T03:33:24.873Z,16.95
2022-08-28T03:35:23.461Z,17.06
2022-08-28T03:37:21.979Z,17.08
2022-08-28T03:39:20.237Z,17.04
2022-08-28T03:41:21.515Z,16.99
2022-08-28T03:43:23.219Z,16.94
2022-08-28T03:45:21.477Z,16.90
2022-08-28T03:47:22.711Z,16.91
2022-08-28T03:49:21.303Z,16.86
2022-08-28T03:51:23.387Z,16.76
2022-08-28T03:53:30.795Z,16.84
2022-08-28T03:55:29.056Z,16.94
2022-08-28T03:57:27.476Z,17.09
2022-08-28T03:59:26.725Z,17.22
2022-08-28T04:01:30.767Z,17.21
2022-08-28T04:03:30.588Z,17.22
2022-08-28T04:05:29.722Z,17.35
2022-08-28T04:07:27.934Z,17.42
2022-08-28T04:09:26.102Z,17.53
2022-08-28T04:11:24.471Z,17.53
2022-08-28T04:13:23.817Z,17.63
2022-08-28T04:15:22.006Z,17.68
2022-08-28T04:17:20.378Z,17.87
2022-08-28T04:19:20.108Z,17.96
2022-08-28T04:21:21.215Z,18.23
2022-08-28T04:23:21.095Z,18.36
2022-08-28T04:25:19.752Z,18.74
2022-08-28T04:27:18.045Z,18.96
2022-08-28T04:29:16.372Z,19.35
2022-08-28T04:31:15.028Z,19.44
2022-08-28T04:33:13.425Z,19.57
2022-08-28T04:35:14.972Z,19.71
2022-08-28T04:37:13.464Z,20.18
2022-08-28T04:39:11.943Z,20.42
2022-08-28T04:41:14.074Z,20.98
2022-08-28T04:43:12.237Z,21.05
2022-08-28T04:45:11.296Z,21.22
2022-08-28T04:47:09.599Z,21.47
2022-08-28T04:49:07.916Z,22.12
2022-08-28T04:51:09.759Z,22.10
2022-08-28T04:53:08.064Z,22.04
2022-08-28T04:55:07.233Z,22.81
2022-08-28T04:57:06.591Z,23.08
2022-08-28T04:59:05.537Z,23.42
2022-08-28T05:01:07.837Z,23.73
2022-08-28T05:03:06.443Z,23.93
2022-08-28T05:05:05.167Z,23.52
2022-08-28T05:07:05.010Z,23.36
2022-08-28T05:09:05.302Z,23.71
2022-08-28T05:11:11.788Z,24.02
2022-08-28T05:13:10.956Z,24.36
2022-08-28T05:15:10.609Z,24.45
2022-08-28T05:17:09.443Z,23.94
2022-08-28T05:19:07.878Z,23.72
2022-08-28T05:21:06.241Z,23.69
2022-08-28T05:23:07.603Z,23.39
2022-08-28T05:25:06.700Z,23.36
2022-08-28T05:27:05.364Z,23.32
2022-08-28T05:29:04.026Z,23.34
2022-08-28T05:31:10.796Z,22.98
2022-08-28T05:33:10.617Z,22.71
2022-08-28T05:35:09.363Z,22.91
2022-08-28T05:37:09.036Z,22.95
2022-08-28T05:39:11.134Z,22.83
2022-08-28T05:41:10.006Z,22.70
2022-08-28T05:43:08.288Z,22.70
2022-08-28T05:45:08.199Z,22.53
2022-08-28T05:47:06.681Z,22.62
2022-08-28T05:49:09.814Z,22.28
2022-08-28T05:51:09.750Z,22.15
2022-08-28T05:53:08.135Z,22.30
2022-08-28T05:55:09.138Z,22.31
2022-08-28T05:57:07.464Z,22.33
2022-08-28T05:59:07.109Z,22.55
2022-08-28T06:01:11.737Z,22.91
2022-08-28T06:03:10.177Z,23.46
2022-08-28T06:05:09.408Z,24.08
2022-08-28T06:07:12.353Z,24.26
2022-08-28T06:09:13.988Z,23.99
2022-08-28T06:11:13.720Z,23.71
2022-08-28T06:13:13.638Z,24.20
2022-08-28T06:15:12.442Z,24.57
2022-08-28T06:17:10.626Z,24.70
2022-08-28T06:19:10.874Z,24.78
2022-08-28T06:21:09.598Z,24.78
2022-08-28T06:23:07.951Z,24.81
2022-08-28T06:25:08.194Z,24.88
2022-08-28T06:27:08.187Z,24.65
2022-08-28T06:29:08.369Z,24.79
2022-08-28T06:31:27.150Z,24.88
2022-08-28T06:33:26.092Z,24.71
2022-08-28T06:35:24.550Z,24.83
2022-08-28T06:37:22.787Z,24.89
2022-08-28T06:39:21.152Z,24.33
2022-08-28T06:41:19.728Z,24.49
2022-08-28T06:43:20.781Z,24.67
2022-08-28T06:45:19.319Z,24.44
2022-08-28T06:47:17.537Z,24.37
2022-08-28T06:49:15.975Z,24.27
2022-08-28T06:51:15.166Z,24.48
2022-08-28T06:53:16.468Z,24.76
2022-08-28T06:55:14.619Z,24.88
2022-08-28T06:57:13.755Z,25.34
2022-08-28T06:59:13.353Z,25.46
2022-08-28T07:01:14.021Z,25.46
2022-08-28T07:03:13.721Z,25.73
2022-08-28T07:05:15.841Z,25.70
2022-08-28T07:07:31.298Z,25.72
2022-08-28T07:09:30.960Z,25.74
2022-08-28T07:11:32.342Z,25.80
2022-08-28T07:13:33.758Z,25.74
2022-08-28T07:15:33.746Z,25.56
2022-08-28T07:17:32.182Z,25.74
2022-08-28T07:19:30.451Z,25.80
2022-08-28T07:21:28.695Z,26.04
2022-08-28T07:23:27.525Z,25.88
2022-08-28T07:25:26.464Z,25.53
2022-08-28T07:27:25.673Z,25.87
2022-08-28T07:29:23.863Z,25.88
2022-08-28T07:31:27.570Z,25.75
2022-08-28T07:33:26.767Z,26.30
2022-08-28T07:35:25.071Z,26.09
2022-08-28T07:37:23.315Z,25.76
2022-08-28T07:39:22.141Z,25.21
2022-08-28T07:41:23.577Z,26.07
2022-08-28T07:43:39.030Z,26.56
2022-08-28T07:45:37.467Z,26.75
2022-08-28T07:47:38.740Z,26.46
2022-08-28T07:49:36.947Z,27.08
2022-08-28T07:51:35.397Z,28.35
2022-08-28T07:53:36.540Z,28.54
2022-08-28T07:55:35.123Z,28.61
2022-08-28T07:57:33.428Z,28.28
2022-08-28T07:59:36.758Z,28.86
2022-08-28T08:01:39.387Z,28.84
2022-08-28T08:03:39.458Z,27.79
2022-08-28T08:05:37.938Z,28.53
2022-08-28T08:07:38.469Z,29.15
2022-08-28T08:09:42.178Z,29.17
2022-08-28T08:11:41.218Z,29.19
2022-08-28T08:13:40.652Z,29.04
2022-08-28T08:15:38.968Z,28.54
2022-08-28T08:17:37.198Z,28.51
2022-08-28T08:19:37.105Z,28.11
2022-08-28T08:21:35.503Z,28.72
2022-08-28T08:23:34.960Z,28.98
2022-08-28T08:25:33.576Z,29.01
2022-08-28T08:27:32.321Z,28.92
2022-08-28T08:29:32.818Z,29.55
2022-08-28T08:31:33.253Z,30.45
2022-08-28T08:33:33.579Z,31.17
2022-08-28T08:35:33.225Z,30.42
2022-08-28T08:37:31.460Z,30.42
2022-08-28T08:39:31.851Z,30.89
2022-08-28T08:41:34.089Z,32.33
2022-08-28T08:43:43.171Z,32.50
2022-08-28T08:45:43.248Z,32.59
2022-08-28T08:47:48.482Z,32.17
2022-08-28T08:49:53.003Z,32.85
2022-08-28T08:52:01.222Z,32.66
2022-08-28T08:54:05.369Z,32.44
2022-08-28T08:56:06.352Z,33.08
2022-08-28T08:58:09.168Z,32.92
2022-08-28T09:00:15.043Z,33.90
2022-08-28T09:02:18.227Z,33.68
2022-08-28T09:04:27.072Z,34.23
2022-08-28T09:06:36.906Z,35.94
2022-08-28T09:08:42.578Z,36.78
2022-08-28T09:10:49.367Z,36.87
2022-08-28T09:12:54.995Z,34.77
2022-08-28T09:15:04.959Z,33.89
2022-08-28T09:17:05.446Z,35.50
2022-08-28T09:19:04.307Z,35.53
2022-08-28T09:21:02.830Z,35.11
2022-08-28T09:23:02.129Z,34.91
2022-08-28T09:25:15.169Z,36.61
2022-08-28T09:27:22.987Z,37.61
2022-08-28T09:29:27.890Z,38.33
2022-08-28T09:31:32.781Z,37.85
2022-08-28T09:33:40.160Z,37.85
2022-08-28T09:35:40.031Z,37.69
2022-08-28T09:37:41.630Z,38.80
2022-08-28T09:39:40.685Z,38.18
2022-08-28T09:42:10.415Z,36.43
2022-08-28T09:44:08.703Z,38.13
2022-08-28T09:46:22.311Z,38.38
2022-08-28T09:48:23.739Z,38.16
2022-08-28T09:50:31.546Z,37.47
2022-08-28T09:52:29.782Z,38.13
2022-08-28T09:54:33.310Z,37.69
2022-08-28T09:56:33.485Z,38.35
2022-08-28T09:58:36.628Z,38.72
2022-08-28T10:00:40.764Z,37.94
2022-08-28T10:02:46.806Z,37.06
2022-08-28T10:04:59.386Z,38.55
2022-08-28T10:07:02.377Z,38.41
2022-08-28T10:09:13.210Z,38.41
2022-08-28T10:11:20.810Z,38.90
2022-08-28T10:13:24.522Z,38.49
2022-08-28T10:15:30.172Z,38.69
2022-08-28T10:17:41.285Z,40.32
2022-08-28T10:19:48.128Z,40.33
2022-08-28T10:21:52.639Z,40.40
2022-08-28T10:24:24.755Z,41.13
2022-08-28T10:26:39.661Z,39.65
2022-08-28T10:28:52.416Z,39.38
2022-08-28T10:31:02.859Z,40.01
2022-08-28T10:33:27.526Z,39.59
2022-08-28T10:35:34.073Z,39.40
2022-08-28T10:37:44.889Z,38.50
2022-08-28T10:39:50.637Z,37.48
2022-08-28T10:41:52.819Z,36.52
2022-08-28T10:43:53.274Z,34.86
2022-08-28T10:45:54.929Z,34.02
2022-08-28T10:47:57.694Z,33.92
2022-08-28T10:50:02.017Z,33.47
2022-08-28T10:52:06.498Z,33.24
2022-08-28T10:54:09.097Z,32.93
2022-08-28T10:56:14.312Z,32.87
2022-08-28T10:58:23.874Z,32.38
2022-08-28T11:00:26.476Z,32.17
2022-08-28T11:02:28.083Z,32.03
2022-08-28T11:04:29.351Z,32.04
2022-08-28T11:06:33.511Z,31.98
2022-08-28T11:08:34.858Z,31.37
2022-08-28T11:10:46.560Z,31.76
2022-08-28T11:12:45.164Z,32.04
2022-08-28T11:14:47.787Z,32.30
2022-08-28T11:16:50.143Z,32.51
2022-08-28T11:19:29.751Z,32.10
2022-08-28T11:21:33.429Z,31.93
2022-08-28T11:23:39.624Z,32.04
2022-08-28T11:25:49.024Z,31.92
2022-08-28T11:28:14.575Z,32.10
2022-08-28T11:30:33.588Z,32.01
2022-08-28T11:32:56.051Z,32.00
2022-08-28T11:34:57.780Z,31.74
2022-08-28T11:37:04.110Z,31.81
2022-08-28T11:39:06.403Z,31.93
2022-08-28T11:41:15.427Z,31.98
2022-08-28T11:43:34.852Z,32.16
2022-08-28T11:46:05.640Z,32.35
2022-08-28T11:48:05.567Z,32.28
2022-08-28T11:50:15.734Z,32.25
2022-08-28T11:52:40.464Z,32.13
2022-08-28T11:54:52.660Z,32.11
2022-08-28T11:57:04.710Z,32.19
2022-08-28T11:59:18.227Z,31.95
2022-08-28T12:01:28.551Z,32.01
2022-08-28T12:03:32.168Z,32.18
2022-08-28T12:05:45.965Z,32.04
2022-08-28T12:07:47.684Z,32.19
2022-08-28T12:09:47.406Z,32.21
2022-08-28T12:11:57.842Z,32.10
2022-08-28T12:13:56.564Z,31.98
2022-08-28T12:16:05.876Z,31.63
2022-08-28T12:18:06.291Z,31.49
2022-08-28T12:20:09.088Z,31.64
2022-08-28T12:22:11.161Z,31.86
2022-08-28T12:24:22.940Z,32.05
2022-08-28T12:26:25.736Z,32.11
2022-08-28T12:28:28.686Z,31.76
2022-08-28T12:30:34.564Z,31.82
2022-08-28T12:32:39.874Z,31.48
2022-08-28T12:34:45.829Z,31.45
2022-08-28T12:36:44.891Z,31.45
2022-08-28T12:38:52.780Z,31.49
2022-08-28T12:40:53.622Z,31.46
2022-08-28T12:42:55.675Z,31.50
2022-08-28T12:44:54.341Z,31.47
2022-08-28T12:46:53.976Z,31.42
2022-08-28T12:48:54.962Z,31.29
2022-08-28T12:50:59.779Z,31.46
2022-08-28T12:53:03.788Z,31.57
2022-08-28T12:55:01.951Z,31.49
2022-08-28T12:57:03.596Z,31.52
2022-08-28T12:59:27.278Z,31.53
2022-08-28T13:01:28.954Z,31.55
2022-08-28T13:03:27.630Z,31.67
2022-08-28T13:05:32.483Z,31.79
2022-08-28T13:07:33.761Z,31.79
2022-08-28T13:09:32.621Z,31.68
2022-08-28T13:11:34.729Z,31.67
2022-08-28T13:13:38.177Z,31.64
2022-08-28T13:15:47.818Z,31.64
2022-08-28T13:17:49.401Z,31.67
2022-08-28T13:20:03.824Z,31.53
2022-08-28T13:22:04.066Z,31.40
2022-08-28T13:24:21.663Z,31.15
2022-08-28T13:26:26.195Z,31.03
2022-08-28T13:28:25.065Z,30.97
2022-08-28T13:30:27.590Z,31.00
2022-08-28T13:32:27.276Z,30.99
2022-08-28T13:34:27.634Z,31.07
2022-08-28T13:36:27.570Z,31.06
2022-08-28T13:38:26.766Z,31.23
2022-08-28T13:42:46.653Z,31.30
2022-08-28T13:44:49.019Z,31.30
2022-08-28T13:46:48.723Z,31.32
2022-08-28T13:48:46.907Z,31.31
2022-08-28T13:50:47.771Z,31.25
2022-08-28T13:52:46.867Z,31.18
2022-08-28T13:54:45.472Z,31.09
2022-08-28T13:56:44.079Z,31.02
2022-08-28T13:58:42.383Z,31.05
2022-08-28T14:00:44.487Z,31.03
2022-08-28T14:03:01.257Z,31.13
2022-08-28T14:04:59.716Z,31.09
2022-08-28T14:06:58.156Z,31.03
2022-08-28T14:08:56.260Z,31.01
2022-08-28T14:10:54.518Z,31.00
2022-08-28T14:12:52.920Z,30.94
2022-08-28T14:14:52.676Z,30.92
2022-08-28T14:16:53.543Z,30.85
2022-08-28T14:18:53.922Z,30.84
2022-08-28T14:20:52.308Z,30.83
2022-08-28T14:22:50.525Z,30.82
2022-08-28T14:24:48.963Z,30.86
2022-08-28T14:26:47.671Z,30.82
2022-08-28T14:28:46.435Z,30.70
2022-08-28T14:30:45.493Z,30.62
2022-08-28T14:32:44.667Z,30.60
2022-08-28T14:34:44.655Z,30.57
2022-08-28T14:36:43.519Z,30.55
2022-08-28T14:38:41.883Z,30.55
2022-08-28T14:40:41.829Z,30.60
2022-08-28T14:42:41.865Z,30.64
2022-08-28T14:44:40.183Z,30.68
2022-08-28T14:46:39.124Z,30.66
2022-08-28T14:48:37.352Z,30.58
2022-08-28T14:50:41.723Z,30.50
2022-08-28T14:52:40.721Z,30.48
2022-08-28T14:54:40.606Z,30.41
2022-08-28T14:56:39.986Z,30.30
2022-08-28T14:58:38.794Z,30.21
2022-08-28T15:00:40.773Z,30.13
2022-08-28T15:02:39.034Z,30.08
2022-08-28T15:04:38.125Z,30.08
2022-08-28T15:06:38.502Z,30.00
2022-08-28T15:08:38.002Z,29.93
2022-08-28T15:10:39.175Z,29.88
2022-08-28T15:12:37.322Z,29.85
2022-08-28T15:14:37.248Z,29.93
2022-08-28T15:16:39.236Z,29.96
2022-08-28T15:18:37.771Z,29.89
2022-08-28T15:20:39.828Z,29.84
2022-08-28T15:22:39.546Z,29.80
2022-08-28T15:24:37.910Z,29.76
2022-08-28T15:26:36.712Z,29.64
2022-08-28T15:28:35.031Z,29.56
2022-08-28T15:30:34.119Z,29.52
2022-08-28T15:32:32.318Z,29.41
2022-08-28T15:34:30.784Z,29.37
2022-08-28T15:36:29.072Z,29.37
2022-08-28T15:38:48.869Z,29.32
2022-08-28T15:41:04.299Z,29.24
2022-08-28T15:43:02.706Z,29.11
2022-08-28T15:45:01.086Z,29.07
2022-08-28T15:47:01.514Z,29.04
2022-08-28T15:48:59.891Z,28.98
2022-08-28T15:50:59.451Z,28.87
2022-08-28T15:52:58.339Z,28.79
2022-08-28T15:54:59.063Z,28.71
2022-08-28T15:56:57.404Z,28.65
2022-08-28T15:58:55.656Z,28.60
2022-08-28T16:00:54.212Z,28.52
2022-08-28T16:02:55.861Z,28.44
2022-08-28T16:04:54.840Z,28.35
2022-08-28T16:07:00.350Z,28.26
2022-08-28T16:08:59.319Z,28.21
2022-08-28T16:10:58.995Z,28.15
2022-08-28T16:12:57.803Z,28.06
2022-08-28T16:14:56.093Z,28.03
2022-08-28T16:16:54.422Z,28.01
2022-08-28T16:18:52.907Z,27.93
2022-08-28T16:20:51.177Z,27.88
2022-08-28T16:22:49.490Z,27.81
2022-08-28T16:24:48.328Z,27.67
2022-08-28T16:26:47.982Z,27.60
2022-08-28T16:28:46.936Z,27.56
2022-08-28T16:30:45.503Z,27.51
2022-08-28T16:32:46.876Z,27.46
2022-08-28T16:34:46.007Z,27.38
2022-08-28T16:36:47.751Z,27.31
2022-08-28T16:38:49.021Z,27.26
2022-08-28T16:40:53.616Z,27.22
2022-08-28T16:42:55.737Z,27.18
2022-08-28T16:44:57.580Z,27.14
2022-08-28T16:46:56.895Z,27.06
2022-08-28T16:48:55.391Z,26.99
2022-08-28T16:50:54.008Z,26.96
2022-08-28T16:52:52.374Z,26.93
2022-08-28T16:54:51.859Z,26.94
2022-08-28T16:56:50.311Z,26.88
2022-08-28T16:58:50.077Z,26.84
2022-08-28T17:00:52.585Z,26.78
2022-08-28T17:02:53.257Z,26.72
2022-08-28T17:04:51.714Z,26.66
2022-08-28T17:06:50.216Z,26.61
2022-08-28T17:08:49.012Z,26.52
2022-08-28T17:10:48.763Z,26.51
2022-08-28T17:12:47.254Z,26.48
2022-08-28T17:14:46.926Z,26.44
2022-08-28T17:16:45.362Z,26.34
2022-08-28T17:18:47.972Z,26.28
2022-08-28T17:21:07.823Z,26.22
2022-08-28T17:23:06.879Z,26.19
2022-08-28T17:25:09.476Z,26.17
2022-08-28T17:27:08.478Z,26.14
2022-08-28T17:29:07.267Z,26.07
2022-08-28T17:31:07.730Z,26.02
2022-08-28T17:33:07.315Z,25.99
2022-08-28T17:35:07.650Z,25.98
2022-08-28T17:37:06.249Z,25.99
2022-08-28T17:39:08.615Z,25.99
2022-08-28T17:41:07.189Z,26.04
2022-08-28T17:43:05.486Z,26.01
2022-08-28T17:45:06.640Z,25.97
2022-08-28T17:47:06.617Z,25.93
2022-08-28T17:49:06.066Z,25.92
2022-08-28T17:51:05.614Z,25.87
2022-08-28T17:53:04.029Z,25.84
2022-08-28T17:55:03.003Z,25.73
2022-08-28T17:57:01.408Z,25.68
2022-08-28T17:58:59.594Z,25.59
2022-08-28T18:00:58.382Z,25.51
2022-08-28T18:02:58.150Z,25.46
2022-08-28T18:04:56.489Z,25.45
2022-08-28T18:06:55.155Z,25.43
2022-08-28T18:08:53.434Z,25.41
2022-08-28T18:10:51.952Z,25.44
2022-08-28T18:12:50.326Z,25.35
2022-08-28T18:14:48.706Z,25.24
2022-08-28T18:16:47.406Z,25.19
2022-08-28T18:18:47.190Z,25.10
2022-08-28T18:20:45.619Z,25.05
2022-08-28T18:22:43.737Z,25.03
2022-08-28T18:24:43.876Z,25.02
2022-08-28T18:26:42.926Z,25.00
2022-08-28T18:28:41.242Z,24.96
2022-08-28T18:30:40.527Z,24.86
2022-08-28T18:32:38.759Z,24.82
2022-08-28T18:34:38.508Z,24.79
2022-08-28T18:36:36.836Z,24.76
2022-08-28T18:38:35.737Z,24.73
2022-08-28T18:40:35.103Z,24.79
2022-08-28T18:42:33.554Z,24.69
2022-08-28T18:44:32.453Z,24.59
2022-08-28T18:46:31.257Z,24.52
2022-08-28T18:48:31.722Z,24.60
2022-08-28T18:50:32.592Z,24.53
2022-08-28T18:52:30.850Z,24.50
2022-08-28T18:54:31.244Z,24.45
2022-08-28T18:56:32.541Z,24.37
2022-08-28T18:58:32.214Z,24.33
2022-08-28T19:00:31.503Z,24.38
2022-08-28T19:02:29.780Z,24.29
2022-08-28T19:04:28.085Z,24.21
2022-08-28T19:06:27.860Z,24.11
2022-08-28T19:08:27.129Z,24.15
2022-08-28T19:10:33.606Z,24.15
2022-08-28T19:12:33.428Z,24.07
2022-08-28T19:14:32.609Z,24.08
2022-08-28T19:16:31.616Z,23.96
2022-08-28T19:18:29.999Z,23.99
2022-08-28T19:20:29.121Z,23.94
2022-08-28T19:22:29.986Z,23.86
2022-08-28T19:24:31.161Z,23.79
2022-08-28T19:26:30.026Z,23.74
2022-08-28T19:28:28.601Z,23.70
2022-08-28T19:30:28.250Z,23.64
2022-08-28T19:32:27.271Z,23.62
2022-08-28T19:34:25.943Z,23.61
2022-08-28T19:36:27.173Z,23.59
2022-08-28T19:38:26.842Z,23.58
2022-08-28T19:40:29.210Z,23.58
2022-08-28T19:42:28.845Z,23.55
2022-08-28T19:44:27.241Z,23.50
2022-08-28T19:46:25.465Z,23.46
2022-08-28T19:48:23.811Z,23.44
2022-08-28T19:50:22.203Z,23.42
2022-08-28T19:52:20.354Z,23.41
2022-08-28T19:54:20.111Z,23.40
2022-08-28T19:56:22.287Z,23.34
2022-08-28T19:58:22.357Z,23.30
2022-08-28T20:00:23.137Z,23.25
2022-08-28T20:02:22.852Z,23.15
2022-08-28T20:04:21.130Z,23.14
2022-08-28T20:06:19.432Z,23.11
2022-08-28T20:08:18.173Z,23.08
2022-08-28T20:10:18.518Z,23.09
2022-08-28T20:12:17.079Z,23.09
2022-08-28T20:14:16.661Z,23.06
2022-08-28T20:18:13.123Z,22.92
2022-08-28T20:20:13.348Z,22.87
2022-08-28T20:22:11.682Z,22.85
2022-08-28T20:24:12.416Z,22.81
2022-08-28T20:26:12.929Z,22.80
2022-08-28T20:28:11.293Z,22.80
2022-08-28T20:30:10.642Z,22.76
2022-08-28T20:32:09.846Z,22.81
2022-08-28T20:34:09.718Z,22.75
2022-08-28T20:36:16.095Z,22.71
2022-08-28T20:38:19.424Z,22.67
2022-08-28T20:40:21.822Z,22.63
2022-08-28T20:42:21.595Z,22.68
2022-08-28T20:44:21.968Z,22.70
2022-08-28T20:46:20.799Z,22.61
2022-08-28T20:48:19.654Z,22.59
2022-08-28T20:50:17.877Z,22.54
2022-08-28T20:52:16.177Z,22.50
2022-08-28T20:54:14.531Z,22.50
2022-08-28T20:56:12.844Z,22.42
2022-08-28T20:58:14.370Z,22.36
2022-08-28T21:00:14.071Z,22.36
2022-08-28T21:02:15.258Z,22.40
2022-08-28T21:04:13.411Z,22.41
2022-08-28T21:06:11.768Z,22.34
2022-08-28T21:08:12.285Z,22.38
2022-08-28T21:10:11.487Z,22.39
2022-08-28T21:12:10.181Z,22.34
2022-08-28T21:14:09.923Z,22.25
2022-08-28T21:16:09.211Z,22.16
2022-08-28T21:18:08.338Z,22.14
2022-08-28T21:20:11.388Z,22.06
2022-08-28T21:22:09.728Z,22.04
2022-08-28T21:24:09.948Z,22.02
2022-08-28T21:26:08.607Z,22.03
2022-08-28T21:28:07.111Z,21.96
2022-08-28T21:30:09.220Z,21.93
2022-08-28T21:32:07.498Z,21.91
2022-08-28T21:34:06.699Z,21.93
2022-08-28T21:36:09.178Z,21.84
2022-08-28T21:38:07.723Z,21.75
2022-08-28T21:40:09.353Z,21.69
2022-08-28T21:42:08.139Z,21.71
2022-08-28T21:44:06.764Z,21.73
2022-08-28T21:46:07.808Z,21.70
2022-08-28T21:48:06.325Z,21.68
2022-08-28T21:50:05.211Z,21.72
2022-08-28T21:52:04.223Z,21.74
2022-08-28T21:54:02.828Z,21.75
2022-08-28T21:56:01.175Z,21.67
2022-08-28T21:57:59.473Z,21.65
2022-08-28T21:59:58.596Z,21.57
2022-08-28T22:02:01.207Z,21.52
2022-08-28T22:03:59.897Z,21.50
2022-08-28T22:05:58.889Z,21.48
2022-08-28T22:07:57.175Z,21.55
2022-08-28T22:09:55.488Z,21.50
2022-08-28T22:11:54.121Z,21.43
2022-08-28T22:13:52.463Z,21.47
2022-08-28T22:15:50.817Z,21.51
2022-08-28T22:17:51.754Z,21.48
2022-08-28T22:19:50.011Z,21.40
2022-08-28T22:22:05.822Z,21.33
2022-08-28T22:24:04.904Z,21.39
2022-08-28T22:26:04.722Z,21.37
2022-08-28T22:28:03.112Z,21.28
2022-08-28T22:30:01.602Z,21.27
2022-08-28T22:32:00.003Z,21.31
2022-08-28T22:34:00.548Z,21.29
2022-08-28T22:35:59.207Z,21.20
2022-08-28T22:38:00.583Z,21.14
2022-08-28T22:39:59.293Z,21.09
2022-08-28T22:41:57.668Z,21.08
2022-08-28T22:43:55.933Z,21.03
2022-08-28T22:45:54.501Z,20.96
2022-08-28T22:47:54.485Z,20.98
2022-08-28T22:49:56.262Z,20.94
2022-08-28T22:51:54.545Z,20.99
2022-08-28T22:53:53.041Z,20.98
2022-08-28T22:55:51.539Z,20.96
2022-08-28T22:57:49.812Z,20.94
2022-08-28T22:59:48.096Z,20.86
2022-08-28T23:01:46.554Z,20.85
2022-08-28T23:03:45.419Z,20.85
2022-08-28T23:05:45.101Z,20.87
2022-08-28T23:07:44.214Z,20.86
2022-08-28T23:09:42.524Z,20.87
2022-08-28T23:11:40.843Z,20.81
2022-08-28T23:13:39.824Z,20.75
2022-08-28T23:15:38.345Z,20.71
2022-08-28T23:17:37.140Z,20.70
2022-08-28T23:19:35.573Z,20.68
2022-08-28T23:21:35.105Z,20.69
2022-08-28T23:23:42.423Z,20.69
2022-08-28T23:25:41.185Z,20.64
2022-08-28T23:27:39.494Z,20.62
2022-08-28T23:29:37.754Z,20.67
2022-08-28T23:31:36.315Z,20.62
2022-08-28T23:33:34.897Z,20.63
2022-08-28T23:35:33.437Z,20.57
2022-08-28T23:37:33.797Z,20.54
2022-08-28T23:39:32.116Z,20.52
2022-08-28T23:41:31.969Z,20.53
2022-08-28T23:43:30.377Z,20.50
2022-08-28T23:45:28.688Z,20.48
2022-08-28T23:47:27.923Z,20.45
2022-08-28T23:49:27.054Z,20.48
2022-08-28T23:51:25.453Z,20.57
2022-08-28T23:53:25.945Z,20.54
2022-08-28T23:55:26.993Z,20.57
2022-08-28T23:57:26.300Z,20.49
2022-08-28T23:59:24.698Z,20.44
